Time;durP1;ratioP1;P1;durP2;ratioP2;P2;SDS_P1;SDS_P2;PMS_P1;PMS_P2;Temp;Humidity;BMP_temperature;BMP_pressure;BME280_temperature;BME280_humidity;BME280_pressure;Samples;Min_cycle;Max_cycle;Signal;HPM_P1;HPM_P2
2023/04/27 00:08:31;;;;;;;5.70;2.40;;;;;;;;;;20835967;28;20057;-71
2023/04/27 00:18:33;;;;;;;4.13;1.55;;;;;;;;;;20834935;28;20049;-71
2023/04/27 00:28:35;;;;;;;4.78;2.00;;;;;;;;;;20834030;28;20053;-71
2023/04/27 00:38:37;;;;;;;4.30;2.17;;;;;;;;;;20833445;28;20049;-71
2023/04/27 00:48:39;;;;;;;4.30;1.48;;;;;;;;;;20833401;28;20057;-71
2023/04/27 00:58:41;;;;;;;3.08;1.08;;;;;;;;;;20833265;28;20549;-72
2023/04/27 01:08:43;;;;;;;6.25;1.92;;;;;;;;;;20832761;28;20041;-72
2023/04/27 01:18:45;;;;;;;4.38;2.10;;;;;;;;;;20832065;28;20540;-72
2023/04/27 01:28:47;;;;;;;5.60;2.75;;;;;;;;;;20831661;28;20103;-71
2023/04/27 01:38:50;;;;;;;2.78;1.30;;;;;;;;;;20831602;28;20115;-72
2023/04/27 01:48:52;;;;;;;2.00;0.90;;;;;;;;;;20830954;28;20132;-72
2023/04/27 01:58:54;;;;;;;1.73;0.93;;;;;;;;;;20831472;28;20049;-72
2023/04/27 02:08:56;;;;;;;5.15;0.88;;;;;;;;;;20846432;28;20476;-71
2023/04/27 02:18:58;;;;;;;5.70;1.00;;;;;;;;;;20844349;28;20042;-71
2023/04/27 02:29:00;;;;;;;4.15;0.95;;;;;;;;;;20844191;28;20053;-71
2023/04/27 02:39:01;;;;;;;3.95;0.80;;;;;;;;;;20870710;28;20055;-71
2023/04/27 02:49:03;;;;;;;2.55;0.65;;;;;;;;;;20843162;28;20056;-71
2023/04/27 02:59:05;;;;;;;1.25;0.68;;;;;;;;;;20842701;28;20453;-71
2023/04/27 03:09:09;;;;;;;2.33;0.60;;;;;;;;;;20840574;28;20053;-71
2023/04/27 03:19:10;;;;;;;1.48;0.73;;;;;;;;;;20840335;28;20050;-72
2023/04/27 03:29:12;;;;;;;1.38;0.63;;;;;;;;;;20839355;28;20076;-71
2023/04/27 03:39:14;;;;;;;0.82;0.50;;;;;;;;;;20838181;28;20061;-71
2023/04/27 03:49:16;;;;;;;1.73;0.43;;;;;;;;;;20838495;28;20053;-71
2023/04/27 03:59:18;;;;;;;1.95;0.43;;;;;;;;;;20836661;28;20085;-72
2023/04/27 04:09:19;;;;;;;2.65;0.60;;;;;;;;;;20837410;28;20111;-72
2023/04/27 04:19:21;;;;;;;2.03;0.60;;;;;;;;;;20836162;28;20056;-72
2023/04/27 04:29:23;;;;;;;0.93;0.43;;;;;;;;;;20833576;28;20533;-72
2023/04/27 04:39:29;;;;;;;1.70;0.60;;;;;;;;;;20834421;28;20045;-72
2023/04/27 04:49:32;;;;;;;2.42;0.90;;;;;;;;;;20834174;28;20046;-72
2023/04/27 04:59:33;;;;;;;3.67;0.73;;;;;;;;;;20832533;28;20103;-72
2023/04/27 05:09:35;;;;;;;1.63;0.75;;;;;;;;;;20831169;28;20045;-71
2023/04/27 05:19:37;;;;;;;2.78;0.70;;;;;;;;;;20832398;28;20041;-72
2023/04/27 05:29:39;;;;;;;3.22;1.00;;;;;;;;;;20829927;28;20061;-72
2023/04/27 05:39:41;;;;;;;3.30;1.35;;;;;;;;;;20844111;28;20045;-72
2023/04/27 05:49:43;;;;;;;1.75;1.15;;;;;;;;;;20847769;28;20087;-72
2023/04/27 05:59:45;;;;;;;8.07;3.88;;;;;;;;;;20847852;28;20478;-72
2023/04/27 06:09:47;;;;;;;7.53;2.28;;;;;;;;;;20846679;28;20456;-72
2023/04/27 06:19:49;;;;;;;5.20;1.30;;;;;;;;;;20844480;28;20060;-72
2023/04/27 06:29:50;;;;;;;3.25;1.10;;;;;;;;;;20843557;28;20056;-73
2023/04/27 06:39:52;;;;;;;5.50;1.10;;;;;;;;;;20842517;28;20057;-73
2023/04/27 06:49:54;;;;;;;18.27;2.42;;;;;;;;;;20840859;28;20057;-72
2023/04/27 06:59:56;;;;;;;6.90;1.70;;;;;;;;;;20842042;28;20076;-73
2023/04/27 07:09:58;;;;;;;5.13;1.38;;;;;;;;;;20841811;28;20490;-73
2023/04/27 07:20:00;;;;;;;6.72;2.00;;;;;;;;;;20840952;28;20483;-73
2023/04/27 07:30:02;;;;;;;14.18;2.42;;;;;;;;;;20839183;28;20061;-74
2023/04/27 07:40:13;;;;;;;5.47;1.20;;;;;;;;;;20839219;28;20045;-73
2023/04/27 07:50:16;;;;;;;5.40;1.50;;;;;;;;;;20837464;28;20133;-73
2023/04/27 08:00:18;;;;;;;9.30;2.13;;;;;;;;;;20837367;28;20388;-74
2023/04/27 08:10:20;;;;;;;7.05;2.13;;;;;;;;;;20836862;28;20068;-73
2023/04/27 08:20:22;;;;;;;7.22;1.33;;;;;;;;;;20836413;28;20045;-74
2023/04/27 08:30:24;;;;;;;11.95;1.67;;;;;;;;;;20834584;28;20053;-73
2023/04/27 08:40:26;;;;;;;8.30;1.20;;;;;;;;;;20850692;28;20060;-73
2023/04/27 08:50:28;;;;;;;7.60;1.30;;;;;;;;;;20835348;28;20056;-73
2023/04/27 09:00:38;;;;;;;4.60;1.08;;;;;;;;;;20833526;28;20049;-73
2023/04/27 09:10:47;;;;;;;4.07;1.13;;;;;;;;;;20832415;28;20401;-74
2023/04/27 09:20:50;;;;;;;7.95;5.07;;;;;;;;;;20832063;28;20552;-73
2023/04/27 09:30:56;;;;;;;5.80;1.33;;;;;;;;;;20830258;28;20049;-69
2023/04/27 09:40:58;;;;;;;4.28;1.20;;;;;;;;;;20878097;28;20048;-67
2023/04/27 09:51:00;;;;;;;4.90;1.10;;;;;;;;;;20857709;28;20049;-72
2023/04/27 10:01:11;;;;;;;3.80;1.60;;;;;;;;;;20847143;28;20055;-71
2023/04/27 10:11:17;;;;;;;3.80;1.38;;;;;;;;;;20871826;28;20049;-65
2023/04/27 10:21:19;;;;;;;6.33;1.60;;;;;;;;;;20869628;28;20049;-59
2023/04/27 10:31:27;;;;;;;9.98;1.45;;;;;;;;;;20919410;28;20438;-62
2023/04/27 10:41:28;;;;;;;;;;;;;;;;;;20908646;28;20045;-67
2023/04/27 10:51:32;;;;;;;4.63;1.50;;;;;;;;;;20861171;28;19925;-62
2023/04/27 11:01:34;;;;;;;4.35;1.30;;;;;;;;;;20878714;28;20046;-63
2023/04/27 11:11:36;;;;;;;3.25;0.88;;;;;;;;;;20845382;28;20482;-65
2023/04/27 11:21:38;;;;;;;3.47;1.00;;;;;;;;;;20847666;28;20048;-68
2023/04/27 11:31:47;;;;;;;3.55;0.90;;;;;;;;;;20874739;28;20495;-71
2023/04/27 11:41:49;;;;;;;3.80;1.00;;;;;;;;;;20882066;28;20052;-69
2023/04/27 11:51:51;;;;;;;0.85;0.50;;;;;;;;;;20920715;28;20125;-72
2023/04/27 12:01:53;;;;;;;9.25;1.88;;;;;;;;;;20920089;28;20380;-73
2023/04/27 12:11:55;;;;;;;5.43;1.20;;;;;;;;;;20919613;28;20056;-72
2023/04/27 12:21:57;;;;;;;4.65;1.15;;;;;;;;;;20917919;28;20441;-73
2023/04/27 12:31:59;;;;;;;5.95;1.08;;;;;;;;;;20916175;28;20137;-66
2023/04/27 12:42:02;;;;;;;3.00;0.98;;;;;;;;;;20916738;28;20049;-67
2023/04/27 12:52:04;;;;;;;4.80;0.95;;;;;;;;;;20915497;28;20098;-66
2023/04/27 13:02:06;;;;;;;3.10;0.90;;;;;;;;;;20915493;28;20507;-67
2023/04/27 13:12:08;;;;;;;2.00;1.20;;;;;;;;;;20916052;28;20414;-67
2023/04/27 13:22:10;;;;;;;2.95;1.55;;;;;;;;;;20915023;28;20505;-67
2023/04/27 13:32:12;;;;;;;3.67;0.77;;;;;;;;;;20912504;28;20454;-67
2023/04/27 13:42:14;;;;;;;1.13;0.60;;;;;;;;;;20912585;28;20052;-67
2023/04/27 13:52:16;;;;;;;3.90;1.33;;;;;;;;;;20913365;28;20460;-69
2023/04/27 14:02:18;;;;;;;3.75;1.33;;;;;;;;;;20926350;28;20410;-68
2023/04/27 14:12:19;;;;;;;4.72;2.63;;;;;;;;;;20926991;28;20056;-68
2023/04/27 14:22:21;;;;;;;4.72;1.80;;;;;;;;;;20927971;28;20045;-68
2023/04/27 14:32:23;;;;;;;5.35;1.70;;;;;;;;;;20927287;28;20057;-68
2023/04/27 14:42:25;;;;;;;1.02;0.70;;;;;;;;;;20927073;28;20056;-67
2023/04/27 14:52:27;;;;;;;4.07;0.82;;;;;;;;;;20925603;28;20406;-67
2023/04/27 15:02:29;;;;;;;3.08;1.70;;;;;;;;;;20923584;28;20052;-68
2023/04/27 15:12:31;;;;;;;7.93;0.93;;;;;;;;;;20921828;28;20048;-67
2023/04/27 15:22:33;;;;;;;2.67;0.80;;;;;;;;;;20922050;28;20111;-67
2023/04/27 15:32:35;;;;;;;3.25;1.10;;;;;;;;;;20921636;28;20465;-67
2023/04/27 15:42:37;;;;;;;4.10;1.25;;;;;;;;;;20922088;28;20457;-67
2023/04/27 15:52:38;;;;;;;3.97;0.75;;;;;;;;;;20920198;28;20060;-68
2023/04/27 16:02:40;;;;;;;2.05;1.25;;;;;;;;;;20919280;28;20052;-68
2023/04/27 16:12:42;;;;;;;11.35;8.43;;;;;;;;;;20851456;28;20124;-64
2023/04/27 16:22:44;;;;;;;3.28;0.93;;;;;;;;;;20830993;28;20052;-64
2023/04/27 16:32:46;;;;;;;4.10;0.90;;;;;;;;;;20827748;28;20053;-66
2023/04/27 16:42:48;;;;;;;3.40;1.20;;;;;;;;;;20824259;28;20418;-62
2023/04/27 16:52:50;;;;;;;2.28;0.90;;;;;;;;;;20830424;28;20064;-67
2023/04/27 17:02:52;;;;;;;8.75;2.92;;;;;;;;;;20830803;28;20403;-62
2023/04/27 17:12:54;;;;;;;6.88;1.40;;;;;;;;;;20830033;28;20061;-65
2023/04/27 17:22:56;;;;;;;3.33;1.80;;;;;;;;;;20827843;28;20045;-61
2023/04/27 17:32:57;;;;;;;6.35;1.30;;;;;;;;;;20829703;28;20119;-69
2023/04/27 17:42:59;;;;;;;6.97;2.30;;;;;;;;;;20829242;28;20141;-70
2023/04/27 17:53:01;;;;;;;3.08;1.15;;;;;;;;;;20820608;28;20053;-68
2023/04/27 18:03:03;;;;;;;4.80;2.00;;;;;;;;;;20828867;28;20048;-67
2023/04/27 18:13:05;;;;;;;8.20;1.65;;;;;;;;;;20828230;28;20054;-69
2023/04/27 18:23:08;;;;;;;4.32;1.48;;;;;;;;;;20828353;28;20094;-69
2023/04/27 18:33:10;;;;;;;5.97;1.75;;;;;;;;;;20826944;28;20061;-69
2023/04/27 18:43:12;;;;;;;8.00;2.67;;;;;;;;;;20831042;28;20053;-67
2023/04/27 18:53:14;;;;;;;6.65;2.28;;;;;;;;;;20842501;28;20049;-68
2023/04/27 19:03:16;;;;;;;4.95;2.53;;;;;;;;;;20840259;28;20053;-68
2023/04/27 19:13:18;;;;;;;8.00;3.20;;;;;;;;;;20841818;28;20050;-68
2023/04/27 19:23:20;;;;;;;7.38;2.85;;;;;;;;;;20839634;28;20089;-67
2023/04/27 19:33:21;;;;;;;6.68;3.08;;;;;;;;;;20838247;28;20057;-68
2023/04/27 19:43:23;;;;;;;4.32;2.95;;;;;;;;;;20837281;28;20045;-68
2023/04/27 19:53:25;;;;;;;11.60;2.95;;;;;;;;;;20837312;28;20056;-68
2023/04/27 20:03:27;;;;;;;7.05;4.25;;;;;;;;;;20837403;28;20384;-68
2023/04/27 20:13:29;;;;;;;12.38;5.00;;;;;;;;;;20837558;28;20536;-69
2023/04/27 20:23:30;;;;;;;13.75;6.18;;;;;;;;;;20835264;28;20056;-67
2023/04/27 20:33:32;;;;;;;10.32;4.07;;;;;;;;;;20835455;28;20130;-68
2023/04/27 20:43:37;;;;;;;12.93;4.68;;;;;;;;;;20837355;28;20479;-68
2023/04/27 20:53:39;;;;;;;9.23;3.72;;;;;;;;;;20833294;28;20426;-67
2023/04/27 21:03:41;;;;;;;9.68;3.60;;;;;;;;;;20829790;28;20056;-69
2023/04/27 21:13:42;;;;;;;10.02;5.03;;;;;;;;;;20831068;28;20513;-69
2023/04/27 21:23:44;;;;;;;10.95;6.05;;;;;;;;;;20830572;28;20136;-68
2023/04/27 21:33:46;;;;;;;11.77;5.38;;;;;;;;;;20831404;28;20057;-67
2023/04/27 21:43:48;;;;;;;13.55;5.55;;;;;;;;;;20829804;28;20231;-68
2023/04/27 21:53:50;;;;;;;8.93;4.32;;;;;;;;;;20829376;28;20056;-68
2023/04/27 22:03:52;;;;;;;8.25;3.25;;;;;;;;;;20827980;28;20045;-69
2023/04/27 22:13:55;;;;;;;9.40;2.22;;;;;;;;;;20828783;28;20451;-67
2023/04/27 22:23:56;;;;;;;9.07;2.67;;;;;;;;;;20842812;28;20042;-68
2023/04/27 22:33:59;;;;;;;8.48;2.95;;;;;;;;;;20842530;28;20060;-68
2023/04/27 22:44:01;;;;;;;5.93;2.72;;;;;;;;;;20843213;28;20046;-67
2023/04/27 22:54:02;;;;;;;7.20;2.47;;;;;;;;;;20842662;28;20049;-68
2023/04/27 23:04:04;;;;;;;8.10;2.97;;;;;;;;;;20842860;28;20053;-68
2023/04/27 23:14:07;;;;;;;7.22;2.85;;;;;;;;;;20842048;28;20056;-68
2023/04/27 23:24:09;;;;;;;7.57;2.40;;;;;;;;;;20841444;28;20049;-68
2023/04/27 23:34:10;;;;;;;7.07;2.83;;;;;;;;;;20839246;28;20076;-67
2023/04/27 23:44:12;;;;;;;8.10;3.45;;;;;;;;;;20839964;28;20045;-68
2023/04/27 23:54:14;;;;;;;7.07;1.88;;;;;;;;;;20839294;28;20049;-68
